sensor_id;sensor_type;location;lat;lon;timestamp;temperature;humidity
1686;DHT22;840;47.980;7.830;2022-12-22T00:00:02;12.90;99.90
1686;DHT22;840;47.980;7.830;2022-12-22T00:02:47;12.80;99.90
1686;DHT22;840;47.980;7.830;2022-12-22T00:05:33;12.80;99.90
1686;DHT22;840;47.980;7.830;2022-12-22T00:08:17;12.80;99.90
1686;DHT22;840;47.980;7.830;2022-12-22T00:11:01;12.80;99.90
1686;DHT22;840;47.980;7.830;2022-12-22T00:13:49;12.70;99.90
1686;DHT22;840;47.980;7.830;2022-12-22T00:16:35;12.70;99.90
1686;DHT22;840;47.980;7.830;2022-12-22T00:19:20;12.70;99.90
1686;DHT22;840;47.980;7.830;2022-12-22T00:22:12;12.70;99.90
1686;DHT22;840;47.980;7.830;2022-12-22T00:24:57;12.70;99.90
1686;DHT22;840;47.980;7.830;2022-12-22T00:27:41;12.80;99.90
1686;DHT22;840;47.980;7.830;2022-12-22T00:30:26;12.70;99.90
1686;DHT22;840;47.980;7.830;2022-12-22T00:33:12;12.70;99.90
1686;DHT22;840;47.980;7.830;2022-12-22T00:35:57;12.60;99.90
1686;DHT22;840;47.980;7.830;2022-12-22T00:38:43;12.50;99.90
1686;DHT22;840;47.980;7.830;2022-12-22T00:41:27;12.40;99.90
1686;DHT22;840;47.980;7.830;2022-12-22T00:44:11;12.40;99.90
1686;DHT22;840;47.980;7.830;2022-12-22T00:46:56;12.30;99.90
1686;DHT22;840;47.980;7.830;2022-12-22T00:49:43;12.30;99.90
1686;DHT22;840;47.980;7.830;2022-12-22T00:52:28;12.20;99.90
1686;DHT22;840;47.980;7.830;2022-12-22T00:55:15;12.20;99.90
1686;DHT22;840;47.980;7.830;2022-12-22T00:58:00;12.20;99.90
1686;DHT22;840;47.980;7.830;2022-12-22T01:00:45;12.20;99.90
1686;DHT22;840;47.980;7.830;2022-12-22T01:03:30;12.20;99.90
1686;DHT22;840;47.980;7.830;2022-12-22T01:06:14;12.20;99.90
1686;DHT22;840;47.980;7.830;2022-12-22T01:08:59;12.20;99.90
1686;DHT22;840;47.980;7.830;2022-12-22T01:11:45;12.20;99.90
1686;DHT22;840;47.980;7.830;2022-12-22T01:14:29;12.20;99.90
1686;DHT22;840;47.980;7.830;2022-12-22T01:17:13;12.20;99.90
1686;DHT22;840;47.980;7.830;2022-12-22T01:19:57;12.20;99.90
1686;DHT22;840;47.980;7.830;2022-12-22T01:22:42;12.20;99.90
1686;DHT22;840;47.980;7.830;2022-12-22T01:25:26;12.30;99.90
1686;DHT22;840;47.980;7.830;2022-12-22T01:28:14;12.30;99.90
1686;DHT22;840;47.980;7.830;2022-12-22T01:31:14;12.30;99.90
1686;DHT22;840;47.980;7.830;2022-12-22T01:33:59;12.30;99.90
1686;DHT22;840;47.980;7.830;2022-12-22T01:36:43;12.30;99.90
1686;DHT22;840;47.980;7.830;2022-12-22T01:39:28;12.40;99.90
1686;DHT22;840;47.980;7.830;2022-12-22T01:42:12;12.40;99.90
1686;DHT22;840;47.980;7.830;2022-12-22T01:45:00;12.40;99.90
1686;DHT22;840;47.980;7.830;2022-12-22T01:47:45;12.40;99.90
1686;DHT22;840;47.980;7.830;2022-12-22T01:50:34;12.50;99.90
1686;DHT22;840;47.980;7.830;2022-12-22T01:53:22;12.50;99.90
1686;DHT22;840;47.980;7.830;2022-12-22T01:56:07;12.50;99.90
1686;DHT22;840;47.980;7.830;2022-12-22T01:58:53;12.60;99.90
1686;DHT22;840;47.980;7.830;2022-12-22T02:01:44;12.60;99.90
1686;DHT22;840;47.980;7.830;2022-12-22T02:04:33;12.60;99.90
1686;DHT22;840;47.980;7.830;2022-12-22T02:07:33;12.60;99.90
1686;DHT22;840;47.980;7.830;2022-12-22T02:10:32;12.70;99.90
1686;DHT22;840;47.980;7.830;2022-12-22T02:13:24;12.70;99.90
1686;DHT22;840;47.980;7.830;2022-12-22T02:16:18;12.70;99.90
1686;DHT22;840;47.980;7.830;2022-12-22T02:19:15;12.70;99.90
1686;DHT22;840;47.980;7.830;2022-12-22T02:22:14;12.70;99.90
1686;DHT22;840;47.980;7.830;2022-12-22T02:25:09;12.70;99.90
1686;DHT22;840;47.980;7.830;2022-12-22T02:27:59;12.70;99.90
1686;DHT22;840;47.980;7.830;2022-12-22T02:30:45;12.70;99.90
1686;DHT22;840;47.980;7.830;2022-12-22T02:33:30;12.70;99.90
1686;DHT22;840;47.980;7.830;2022-12-22T02:36:20;12.70;99.90
1686;DHT22;840;47.980;7.830;2022-12-22T02:39:10;12.70;99.90
1686;DHT22;840;47.980;7.830;2022-12-22T02:42:06;12.80;99.90
1686;DHT22;840;47.980;7.830;2022-12-22T02:44:57;12.80;99.90
1686;DHT22;840;47.980;7.830;2022-12-22T02:47:48;12.80;99.90
1686;DHT22;840;47.980;7.830;2022-12-22T02:50:37;12.90;99.90
1686;DHT22;840;47.980;7.830;2022-12-22T02:53:23;13.00;99.90
1686;DHT22;840;47.980;7.830;2022-12-22T02:56:09;13.00;99.90
1686;DHT22;840;47.980;7.830;2022-12-22T02:58:54;13.00;99.90
1686;DHT22;840;47.980;7.830;2022-12-22T03:01:43;13.10;99.90
1686;DHT22;840;47.980;7.830;2022-12-22T03:04:28;13.10;99.90
1686;DHT22;840;47.980;7.830;2022-12-22T03:07:12;13.20;99.90
1686;DHT22;840;47.980;7.830;2022-12-22T03:09:56;13.20;99.90
1686;DHT22;840;47.980;7.830;2022-12-22T03:12:41;13.20;99.90
1686;DHT22;840;47.980;7.830;2022-12-22T03:15:25;13.20;99.90
1686;DHT22;840;47.980;7.830;2022-12-22T03:18:12;13.20;99.90
1686;DHT22;840;47.980;7.830;2022-12-22T03:20:57;13.20;99.90
1686;DHT22;840;47.980;7.830;2022-12-22T03:23:42;13.30;99.90
1686;DHT22;840;47.980;7.830;2022-12-22T03:26:27;13.30;99.90
1686;DHT22;840;47.980;7.830;2022-12-22T03:28:54;13.30;99.90
1686;DHT22;840;47.980;7.830;2022-12-22T03:31:21;13.30;99.90
1686;DHT22;840;47.980;7.830;2022-12-22T03:33:50;13.40;99.90
1686;DHT22;840;47.980;7.830;2022-12-22T03:36:16;13.40;99.90
1686;DHT22;840;47.980;7.830;2022-12-22T03:38:43;13.40;99.90
1686;DHT22;840;47.980;7.830;2022-12-22T03:41:10;13.40;99.90
1686;DHT22;840;47.980;7.830;2022-12-22T03:43:57;13.40;99.90
1686;DHT22;840;47.980;7.830;2022-12-22T03:46:41;13.40;99.90
1686;DHT22;840;47.980;7.830;2022-12-22T03:49:10;13.40;99.90
1686;DHT22;840;47.980;7.830;2022-12-22T03:51:39;13.40;99.90
1686;DHT22;840;47.980;7.830;2022-12-22T03:54:07;13.30;99.90
1686;DHT22;840;47.980;7.830;2022-12-22T03:56:35;13.40;99.90
1686;DHT22;840;47.980;7.830;2022-12-22T03:59:02;13.40;99.90
1686;DHT22;840;47.980;7.830;2022-12-22T04:01:30;13.40;99.90
1686;DHT22;840;47.980;7.830;2022-12-22T04:03:57;13.40;99.90
1686;DHT22;840;47.980;7.830;2022-12-22T04:06:26;13.40;99.90
1686;DHT22;840;47.980;7.830;2022-12-22T04:08:52;13.40;99.90
1686;DHT22;840;47.980;7.830;2022-12-22T04:11:19;13.40;99.90
1686;DHT22;840;47.980;7.830;2022-12-22T04:14:03;13.40;99.90
1686;DHT22;840;47.980;7.830;2022-12-22T04:16:30;13.40;99.90
1686;DHT22;840;47.980;7.830;2022-12-22T04:18:57;13.40;99.90
1686;DHT22;840;47.980;7.830;2022-12-22T04:21:26;13.40;99.90
1686;DHT22;840;47.980;7.830;2022-12-22T04:23:53;13.40;99.90
1686;DHT22;840;47.980;7.830;2022-12-22T04:26:22;13.40;99.90
1686;DHT22;840;47.980;7.830;2022-12-22T04:28:50;13.40;99.90
1686;DHT22;840;47.980;7.830;2022-12-22T04:31:18;13.40;99.90
1686;DHT22;840;47.980;7.830;2022-12-22T04:33:45;13.40;99.90
1686;DHT22;840;47.980;7.830;2022-12-22T04:36:11;13.40;99.90
1686;DHT22;840;47.980;7.830;2022-12-22T04:38:40;13.40;99.90
1686;DHT22;840;47.980;7.830;2022-12-22T04:41:07;13.40;99.90
1686;DHT22;840;47.980;7.830;2022-12-22T04:43:35;13.40;99.90
1686;DHT22;840;47.980;7.830;2022-12-22T04:46:02;13.40;99.90
1686;DHT22;840;47.980;7.830;2022-12-22T04:48:30;13.40;99.90
1686;DHT22;840;47.980;7.830;2022-12-22T04:50:58;13.40;99.90
1686;DHT22;840;47.980;7.830;2022-12-22T04:53:27;13.50;99.90
1686;DHT22;840;47.980;7.830;2022-12-22T04:55:58;13.40;99.90
1686;DHT22;840;47.980;7.830;2022-12-22T04:58:25;13.40;99.90
1686;DHT22;840;47.980;7.830;2022-12-22T05:00:52;13.40;99.90
1686;DHT22;840;47.980;7.830;2022-12-22T05:03:19;13.40;99.90
1686;DHT22;840;47.980;7.830;2022-12-22T05:05:46;13.40;99.90
1686;DHT22;840;47.980;7.830;2022-12-22T05:08:13;13.40;99.90
1686;DHT22;840;47.980;7.830;2022-12-22T05:10:40;13.40;99.90
1686;DHT22;840;47.980;7.830;2022-12-22T05:13:08;13.40;99.90
1686;DHT22;840;47.980;7.830;2022-12-22T05:15:37;13.40;99.90
1686;DHT22;840;47.980;7.830;2022-12-22T05:18:04;13.40;99.90
1686;DHT22;840;47.980;7.830;2022-12-22T05:20:31;13.40;99.90
1686;DHT22;840;47.980;7.830;2022-12-22T05:22:58;13.40;99.90
1686;DHT22;840;47.980;7.830;2022-12-22T05:25:25;13.40;99.90
1686;DHT22;840;47.980;7.830;2022-12-22T05:27:52;13.40;99.90
1686;DHT22;840;47.980;7.830;2022-12-22T05:30:21;13.30;99.90
1686;DHT22;840;47.980;7.830;2022-12-22T05:32:52;13.30;99.90
1686;DHT22;840;47.980;7.830;2022-12-22T05:35:19;13.30;99.90
1686;DHT22;840;47.980;7.830;2022-12-22T05:37:47;13.30;99.90
1686;DHT22;840;47.980;7.830;2022-12-22T05:40:23;13.30;99.90
1686;DHT22;840;47.980;7.830;2022-12-22T05:42:50;13.30;99.90
1686;DHT22;840;47.980;7.830;2022-12-22T05:45:22;13.20;99.90
1686;DHT22;840;47.980;7.830;2022-12-22T05:47:59;13.20;99.90
1686;DHT22;840;47.980;7.830;2022-12-22T05:50:28;13.20;99.90
1686;DHT22;840;47.980;7.830;2022-12-22T05:53:08;13.20;99.90
1686;DHT22;840;47.980;7.830;2022-12-22T05:55:36;13.20;99.90
1686;DHT22;840;47.980;7.830;2022-12-22T05:58:04;13.30;99.90
1686;DHT22;840;47.980;7.830;2022-12-22T06:03:55;13.40;99.90
1686;DHT22;840;47.980;7.830;2022-12-22T06:09:09;13.30;99.90
1686;DHT22;840;47.980;7.830;2022-12-22T06:12:09;13.20;99.90
1686;DHT22;840;47.980;7.830;2022-12-22T06:14:37;13.20;99.90
1686;DHT22;840;47.980;7.830;2022-12-22T06:17:11;13.20;99.90
1686;DHT22;840;47.980;7.830;2022-12-22T06:19:52;13.20;99.90
1686;DHT22;840;47.980;7.830;2022-12-22T06:22:19;13.20;99.90
1686;DHT22;840;47.980;7.830;2022-12-22T06:28:19;13.20;99.90
1686;DHT22;840;47.980;7.830;2022-12-22T06:30:48;13.20;99.90
1686;DHT22;840;47.980;7.830;2022-12-22T06:37:02;13.30;99.90
1686;DHT22;840;47.980;7.830;2022-12-22T06:39:35;13.30;99.90
1686;DHT22;840;47.980;7.830;2022-12-22T06:42:17;13.30;99.90
1686;DHT22;840;47.980;7.830;2022-12-22T06:45:10;13.20;99.90
1686;DHT22;840;47.980;7.830;2022-12-22T06:48:30;13.20;99.90
1686;DHT22;840;47.980;7.830;2022-12-22T06:51:23;13.20;99.90
1686;DHT22;840;47.980;7.830;2022-12-22T06:53:56;13.20;99.90
1686;DHT22;840;47.980;7.830;2022-12-22T06:56:23;13.30;99.90
1686;DHT22;840;47.980;7.830;2022-12-22T06:58:50;13.20;99.90
1686;DHT22;840;47.980;7.830;2022-12-22T07:01:17;13.20;99.90
1686;DHT22;840;47.980;7.830;2022-12-22T07:03:44;13.20;99.90
1686;DHT22;840;47.980;7.830;2022-12-22T07:06:10;13.20;99.90
1686;DHT22;840;47.980;7.830;2022-12-22T07:08:37;13.20;99.90
1686;DHT22;840;47.980;7.830;2022-12-22T07:11:06;13.10;99.90
1686;DHT22;840;47.980;7.830;2022-12-22T07:13:34;13.20;99.90
1686;DHT22;840;47.980;7.830;2022-12-22T07:18:40;13.10;99.90
1686;DHT22;840;47.980;7.830;2022-12-22T07:21:11;13.10;99.90
1686;DHT22;840;47.980;7.830;2022-12-22T07:23:39;13.00;99.90
1686;DHT22;840;47.980;7.830;2022-12-22T07:26:09;13.00;99.90
1686;DHT22;840;47.980;7.830;2022-12-22T07:28:38;13.00;99.90
1686;DHT22;840;47.980;7.830;2022-12-22T07:31:11;13.00;99.90
1686;DHT22;840;47.980;7.830;2022-12-22T07:33:40;13.00;99.90
1686;DHT22;840;47.980;7.830;2022-12-22T07:36:10;12.90;99.90
1686;DHT22;840;47.980;7.830;2022-12-22T07:38:39;12.90;99.90
1686;DHT22;840;47.980;7.830;2022-12-22T07:41:10;12.90;99.90
1686;DHT22;840;47.980;7.830;2022-12-22T07:43:52;13.00;99.90
1686;DHT22;840;47.980;7.830;2022-12-22T07:46:19;12.90;99.90
1686;DHT22;840;47.980;7.830;2022-12-22T07:48:46;12.90;99.90
1686;DHT22;840;47.980;7.830;2022-12-22T07:51:33;12.90;99.90
1686;DHT22;840;47.980;7.830;2022-12-22T07:54:04;12.80;99.90
1686;DHT22;840;47.980;7.830;2022-12-22T07:56:53;12.90;99.90
1686;DHT22;840;47.980;7.830;2022-12-22T07:59:22;12.80;99.90
1686;DHT22;840;47.980;7.830;2022-12-22T08:01:50;12.80;99.90
1686;DHT22;840;47.980;7.830;2022-12-22T08:04:22;12.80;99.90
1686;DHT22;840;47.980;7.830;2022-12-22T08:07:03;12.80;99.90
1686;DHT22;840;47.980;7.830;2022-12-22T08:10:01;12.80;99.90
1686;DHT22;840;47.980;7.830;2022-12-22T08:12:44;12.80;99.90
1686;DHT22;840;47.980;7.830;2022-12-22T08:15:13;12.80;99.90
1686;DHT22;840;47.980;7.830;2022-12-22T08:23:54;12.60;99.90
1686;DHT22;840;47.980;7.830;2022-12-22T08:26:28;12.50;99.90
1686;DHT22;840;47.980;7.830;2022-12-22T08:29:30;12.50;99.90
1686;DHT22;840;47.980;7.830;2022-12-22T08:32:01;12.40;99.90
1686;DHT22;840;47.980;7.830;2022-12-22T08:37:48;12.40;99.90
1686;DHT22;840;47.980;7.830;2022-12-22T08:43:42;12.40;99.90
1686;DHT22;840;47.980;7.830;2022-12-22T08:46:21;12.50;99.90
1686;DHT22;840;47.980;7.830;2022-12-22T08:48:49;12.50;99.90
1686;DHT22;840;47.980;7.830;2022-12-22T08:51:21;12.50;99.90
1686;DHT22;840;47.980;7.830;2022-12-22T08:53:58;12.60;99.90
1686;DHT22;840;47.980;7.830;2022-12-22T08:59:17;12.60;99.90
1686;DHT22;840;47.980;7.830;2022-12-22T09:01:48;12.60;99.90
1686;DHT22;840;47.980;7.830;2022-12-22T09:04:18;12.70;99.90
1686;DHT22;840;47.980;7.830;2022-12-22T09:06:47;12.80;99.90
1686;DHT22;840;47.980;7.830;2022-12-22T09:09:15;12.80;99.90
1686;DHT22;840;47.980;7.830;2022-12-22T09:11:44;12.80;99.90
1686;DHT22;840;47.980;7.830;2022-12-22T09:14:13;12.80;99.90
1686;DHT22;840;47.980;7.830;2022-12-22T09:16:45;12.70;99.90
1686;DHT22;840;47.980;7.830;2022-12-22T09:19:16;12.70;99.90
1686;DHT22;840;47.980;7.830;2022-12-22T09:21:48;12.70;99.90
1686;DHT22;840;47.980;7.830;2022-12-22T09:24:15;12.70;99.90
1686;DHT22;840;47.980;7.830;2022-12-22T09:26:43;12.70;99.90
1686;DHT22;840;47.980;7.830;2022-12-22T09:29:11;12.70;99.90
1686;DHT22;840;47.980;7.830;2022-12-22T09:31:41;12.60;99.90
1686;DHT22;840;47.980;7.830;2022-12-22T09:34:23;12.60;99.90
1686;DHT22;840;47.980;7.830;2022-12-22T09:37:29;12.60;99.90
1686;DHT22;840;47.980;7.830;2022-12-22T09:40:01;12.60;99.90
1686;DHT22;840;47.980;7.830;2022-12-22T09:42:34;12.60;99.90
1686;DHT22;840;47.980;7.830;2022-12-22T09:54:20;12.70;99.90
1686;DHT22;840;47.980;7.830;2022-12-22T09:57:47;12.70;99.90
1686;DHT22;840;47.980;7.830;2022-12-22T10:00:23;12.80;99.90
1686;DHT22;840;47.980;7.830;2022-12-22T10:06:46;12.80;99.90
1686;DHT22;840;47.980;7.830;2022-12-22T10:19:23;12.80;99.90
1686;DHT22;840;47.980;7.830;2022-12-22T10:25:28;13.00;99.90
1686;DHT22;840;47.980;7.830;2022-12-22T10:28:21;13.00;99.90
1686;DHT22;840;47.980;7.830;2022-12-22T10:31:17;13.00;99.90
1686;DHT22;840;47.980;7.830;2022-12-22T10:33:48;13.10;99.90
1686;DHT22;840;47.980;7.830;2022-12-22T10:36:21;13.10;99.90
1686;DHT22;840;47.980;7.830;2022-12-22T10:39:07;13.10;99.90
1686;DHT22;840;47.980;7.830;2022-12-22T10:41:47;13.10;99.90
1686;DHT22;840;47.980;7.830;2022-12-22T10:44:24;13.20;99.90
1686;DHT22;840;47.980;7.830;2022-12-22T10:50:29;13.30;99.90
1686;DHT22;840;47.980;7.830;2022-12-22T10:52:58;13.30;99.90
1686;DHT22;840;47.980;7.830;2022-12-22T10:55:29;13.30;99.90
1686;DHT22;840;47.980;7.830;2022-12-22T11:08:43;13.30;99.90
1686;DHT22;840;47.980;7.830;2022-12-22T11:11:17;13.20;99.90
1686;DHT22;840;47.980;7.830;2022-12-22T11:13:55;13.30;99.90
1686;DHT22;840;47.980;7.830;2022-12-22T11:16:34;13.30;99.90
1686;DHT22;840;47.980;7.830;2022-12-22T11:22:37;13.20;99.90
1686;DHT22;840;47.980;7.830;2022-12-22T11:25:28;13.20;99.90
1686;DHT22;840;47.980;7.830;2022-12-22T11:28:42;13.10;99.90
1686;DHT22;840;47.980;7.830;2022-12-22T11:31:23;13.20;99.90
1686;DHT22;840;47.980;7.830;2022-12-22T11:34:01;13.30;99.90
1686;DHT22;840;47.980;7.830;2022-12-22T11:36:52;13.30;99.90
1686;DHT22;840;47.980;7.830;2022-12-22T11:39:35;13.20;99.90
1686;DHT22;840;47.980;7.830;2022-12-22T11:42:15;13.20;99.90
1686;DHT22;840;47.980;7.830;2022-12-22T11:44:48;13.20;99.90
1686;DHT22;840;47.980;7.830;2022-12-22T11:47:26;13.30;99.90
1686;DHT22;840;47.980;7.830;2022-12-22T11:50:17;13.20;99.90
1686;DHT22;840;47.980;7.830;2022-12-22T11:53:02;13.20;99.90
1686;DHT22;840;47.980;7.830;2022-12-22T11:55:39;13.20;99.90
1686;DHT22;840;47.980;7.830;2022-12-22T11:59:09;13.20;99.90
1686;DHT22;840;47.980;7.830;2022-12-22T12:01:52;13.20;99.90
1686;DHT22;840;47.980;7.830;2022-12-22T12:04:35;13.20;99.90
1686;DHT22;840;47.980;7.830;2022-12-22T12:07:23;13.20;99.90
1686;DHT22;840;47.980;7.830;2022-12-22T12:09:57;13.20;99.90
1686;DHT22;840;47.980;7.830;2022-12-22T12:12:36;13.30;99.90
1686;DHT22;840;47.980;7.830;2022-12-22T12:15:18;13.30;99.90
1686;DHT22;840;47.980;7.830;2022-12-22T12:18:03;13.30;99.90
1686;DHT22;840;47.980;7.830;2022-12-22T12:20:44;13.40;99.90
1686;DHT22;840;47.980;7.830;2022-12-22T12:23:25;13.50;99.90
1686;DHT22;840;47.980;7.830;2022-12-22T12:26:06;13.50;99.90
1686;DHT22;840;47.980;7.830;2022-12-22T12:28:50;13.50;99.90
1686;DHT22;840;47.980;7.830;2022-12-22T12:31:45;13.60;99.90
1686;DHT22;840;47.980;7.830;2022-12-22T12:34:16;13.50;99.90
1686;DHT22;840;47.980;7.830;2022-12-22T12:37:05;13.50;99.90
1686;DHT22;840;47.980;7.830;2022-12-22T12:39:53;13.50;99.90
1686;DHT22;840;47.980;7.830;2022-12-22T12:45:42;13.50;99.90
1686;DHT22;840;47.980;7.830;2022-12-22T12:48:39;13.50;99.90
1686;DHT22;840;47.980;7.830;2022-12-22T12:54:44;13.40;99.90
1686;DHT22;840;47.980;7.830;2022-12-22T12:57:44;13.40;99.90
1686;DHT22;840;47.980;7.830;2022-12-22T13:00:40;13.40;99.90
1686;DHT22;840;47.980;7.830;2022-12-22T13:03:09;13.30;99.90
1686;DHT22;840;47.980;7.830;2022-12-22T13:05:53;13.30;99.90
1686;DHT22;840;47.980;7.830;2022-12-22T13:08:25;13.20;99.90
1686;DHT22;840;47.980;7.830;2022-12-22T13:11:32;13.10;99.90
1686;DHT22;840;47.980;7.830;2022-12-22T13:17:38;12.90;99.90
1686;DHT22;840;47.980;7.830;2022-12-22T13:20:23;12.80;99.90
1686;DHT22;840;47.980;7.830;2022-12-22T13:23:09;12.80;99.90
1686;DHT22;840;47.980;7.830;2022-12-22T13:25:47;12.80;99.90
1686;DHT22;840;47.980;7.830;2022-12-22T13:28:19;12.70;99.90
1686;DHT22;840;47.980;7.830;2022-12-22T13:30:52;12.70;99.90
1686;DHT22;840;47.980;7.830;2022-12-22T13:33:29;12.70;99.90
1686;DHT22;840;47.980;7.830;2022-12-22T13:36:03;12.70;99.90
1686;DHT22;840;47.980;7.830;2022-12-22T13:38:38;12.70;99.90
1686;DHT22;840;47.980;7.830;2022-12-22T13:41:13;12.70;99.90
1686;DHT22;840;47.980;7.830;2022-12-22T13:43:44;12.70;99.90
1686;DHT22;840;47.980;7.830;2022-12-22T13:46:16;12.60;99.90
1686;DHT22;840;47.980;7.830;2022-12-22T13:48:48;12.60;99.90
1686;DHT22;840;47.980;7.830;2022-12-22T13:51:18;12.60;99.90
1686;DHT22;840;47.980;7.830;2022-12-22T13:53:51;12.60;99.90
1686;DHT22;840;47.980;7.830;2022-12-22T13:56:24;12.50;99.90
1686;DHT22;840;47.980;7.830;2022-12-22T13:58:56;12.60;99.90
1686;DHT22;840;47.980;7.830;2022-12-22T14:01:24;12.60;99.90
1686;DHT22;840;47.980;7.830;2022-12-22T14:03:52;12.50;99.90
1686;DHT22;840;47.980;7.830;2022-12-22T14:06:28;12.60;99.90
1686;DHT22;840;47.980;7.830;2022-12-22T14:09:13;12.60;99.90
1686;DHT22;840;47.980;7.830;2022-12-22T14:11:42;12.50;99.90
1686;DHT22;840;47.980;7.830;2022-12-22T14:14:15;12.50;99.90
1686;DHT22;840;47.980;7.830;2022-12-22T14:16:45;12.50;99.90
1686;DHT22;840;47.980;7.830;2022-12-22T14:19:14;12.50;99.90
1686;DHT22;840;47.980;7.830;2022-12-22T14:21:44;12.50;99.90
1686;DHT22;840;47.980;7.830;2022-12-22T14:24:18;12.40;99.90
1686;DHT22;840;47.980;7.830;2022-12-22T14:26:48;12.40;99.90
1686;DHT22;840;47.980;7.830;2022-12-22T14:29:18;12.40;99.90
1686;DHT22;840;47.980;7.830;2022-12-22T14:31:51;12.40;99.90
1686;DHT22;840;47.980;7.830;2022-12-22T14:34:25;12.40;99.90
1686;DHT22;840;47.980;7.830;2022-12-22T14:36:53;12.30;99.90
1686;DHT22;840;47.980;7.830;2022-12-22T14:39:24;12.30;99.90
1686;DHT22;840;47.980;7.830;2022-12-22T14:41:54;12.30;99.90
1686;DHT22;840;47.980;7.830;2022-12-22T14:44:23;12.30;99.90
1686;DHT22;840;47.980;7.830;2022-12-22T14:47:05;12.20;99.90
1686;DHT22;840;47.980;7.830;2022-12-22T14:49:34;12.30;99.90
1686;DHT22;840;47.980;7.830;2022-12-22T14:52:22;12.30;99.90
1686;DHT22;840;47.980;7.830;2022-12-22T14:54:53;12.30;99.90
1686;DHT22;840;47.980;7.830;2022-12-22T14:57:28;12.30;99.90
1686;DHT22;840;47.980;7.830;2022-12-22T14:59:58;12.30;99.90
1686;DHT22;840;47.980;7.830;2022-12-22T15:02:29;12.30;99.90
1686;DHT22;840;47.980;7.830;2022-12-22T15:05:13;12.30;99.90
1686;DHT22;840;47.980;7.830;2022-12-22T15:07:46;12.30;99.90
1686;DHT22;840;47.980;7.830;2022-12-22T15:10:15;12.30;99.90
1686;DHT22;840;47.980;7.830;2022-12-22T15:12:43;12.40;99.90
1686;DHT22;840;47.980;7.830;2022-12-22T15:15:24;12.40;99.90
1686;DHT22;840;47.980;7.830;2022-12-22T15:17:52;12.40;99.90
1686;DHT22;840;47.980;7.830;2022-12-22T15:20:22;12.40;99.90
1686;DHT22;840;47.980;7.830;2022-12-22T15:22:49;12.30;99.90
1686;DHT22;840;47.980;7.830;2022-12-22T15:25:19;12.40;99.90
1686;DHT22;840;47.980;7.830;2022-12-22T15:27:46;12.40;99.90
1686;DHT22;840;47.980;7.830;2022-12-22T15:30:16;12.40;99.90
1686;DHT22;840;47.980;7.830;2022-12-22T15:32:45;12.40;99.90
1686;DHT22;840;47.980;7.830;2022-12-22T15:35:20;12.40;99.90
1686;DHT22;840;47.980;7.830;2022-12-22T15:37:50;12.50;99.90
1686;DHT22;840;47.980;7.830;2022-12-22T15:40:20;12.50;99.90
1686;DHT22;840;47.980;7.830;2022-12-22T15:42:48;12.40;99.90
1686;DHT22;840;47.980;7.830;2022-12-22T15:45:16;12.40;99.90
1686;DHT22;840;47.980;7.830;2022-12-22T15:47:47;12.50;99.90
1686;DHT22;840;47.980;7.830;2022-12-22T15:50:16;12.50;99.90
1686;DHT22;840;47.980;7.830;2022-12-22T15:52:47;12.50;99.90
1686;DHT22;840;47.980;7.830;2022-12-22T15:55:16;12.50;99.90
1686;DHT22;840;47.980;7.830;2022-12-22T15:57:45;12.50;99.90
1686;DHT22;840;47.980;7.830;2022-12-22T16:00:15;12.50;99.90
1686;DHT22;840;47.980;7.830;2022-12-22T16:02:42;12.50;99.90
1686;DHT22;840;47.980;7.830;2022-12-22T16:05:11;12.50;99.90
1686;DHT22;840;47.980;7.830;2022-12-22T16:07:39;12.50;99.90
1686;DHT22;840;47.980;7.830;2022-12-22T16:10:17;12.50;99.90
1686;DHT22;840;47.980;7.830;2022-12-22T16:12:47;12.50;99.90
1686;DHT22;840;47.980;7.830;2022-12-22T16:15:19;12.50;99.90
1686;DHT22;840;47.980;7.830;2022-12-22T16:17:47;12.50;99.90
1686;DHT22;840;47.980;7.830;2022-12-22T16:20:16;12.50;99.90
1686;DHT22;840;47.980;7.830;2022-12-22T16:22:43;12.60;99.90
1686;DHT22;840;47.980;7.830;2022-12-22T16:25:12;12.60;99.90
1686;DHT22;840;47.980;7.830;2022-12-22T16:27:40;12.70;99.90
1686;DHT22;840;47.980;7.830;2022-12-22T16:30:15;12.70;99.90
1686;DHT22;840;47.980;7.830;2022-12-22T16:32:42;12.70;99.90
1686;DHT22;840;47.980;7.830;2022-12-22T16:35:14;12.70;99.90
1686;DHT22;840;47.980;7.830;2022-12-22T16:37:41;12.80;99.90
1686;DHT22;840;47.980;7.830;2022-12-22T16:40:09;12.80;99.90
1686;DHT22;840;47.980;7.830;2022-12-22T16:42:38;12.80;99.90
1686;DHT22;840;47.980;7.830;2022-12-22T16:45:17;12.80;99.90
1686;DHT22;840;47.980;7.830;2022-12-22T16:47:49;12.80;99.90
1686;DHT22;840;47.980;7.830;2022-12-22T16:50:28;12.80;99.90
1686;DHT22;840;47.980;7.830;2022-12-22T16:53:03;12.80;99.90
1686;DHT22;840;47.980;7.830;2022-12-22T16:55:45;12.80;99.90
1686;DHT22;840;47.980;7.830;2022-12-22T16:58:14;12.80;99.90
1686;DHT22;840;47.980;7.830;2022-12-22T17:00:58;12.90;99.90
1686;DHT22;840;47.980;7.830;2022-12-22T17:03:29;12.80;99.90
1686;DHT22;840;47.980;7.830;2022-12-22T17:05:58;12.90;99.90
1686;DHT22;840;47.980;7.830;2022-12-22T17:08:31;12.80;99.90
1686;DHT22;840;47.980;7.830;2022-12-22T17:11:02;12.80;99.90
1686;DHT22;840;47.980;7.830;2022-12-22T17:13:31;12.80;99.90
1686;DHT22;840;47.980;7.830;2022-12-22T17:16:03;12.70;99.90
1686;DHT22;840;47.980;7.830;2022-12-22T17:18:35;12.70;99.90
1686;DHT22;840;47.980;7.830;2022-12-22T17:21:05;12.60;99.90
1686;DHT22;840;47.980;7.830;2022-12-22T17:23:33;12.60;99.90
1686;DHT22;840;47.980;7.830;2022-12-22T17:26:06;12.60;99.90
1686;DHT22;840;47.980;7.830;2022-12-22T17:28:34;12.70;99.90
1686;DHT22;840;47.980;7.830;2022-12-22T17:31:04;12.70;99.90
1686;DHT22;840;47.980;7.830;2022-12-22T17:33:31;12.60;99.90
1686;DHT22;840;47.980;7.830;2022-12-22T17:35:59;12.60;99.90
1686;DHT22;840;47.980;7.830;2022-12-22T17:38:27;12.60;99.90
1686;DHT22;840;47.980;7.830;2022-12-22T17:40:54;12.60;99.90
1686;DHT22;840;47.980;7.830;2022-12-22T17:43:22;12.60;99.90
1686;DHT22;840;47.980;7.830;2022-12-22T17:45:49;12.60;99.90
1686;DHT22;840;47.980;7.830;2022-12-22T17:48:19;12.60;99.90
1686;DHT22;840;47.980;7.830;2022-12-22T17:50:48;12.60;99.90
1686;DHT22;840;47.980;7.830;2022-12-22T17:53:17;12.70;99.90
1686;DHT22;840;47.980;7.830;2022-12-22T17:55:45;12.70;99.90
1686;DHT22;840;47.980;7.830;2022-12-22T17:58:14;12.70;99.90
1686;DHT22;840;47.980;7.830;2022-12-22T18:00:43;12.80;99.90
1686;DHT22;840;47.980;7.830;2022-12-22T18:03:15;12.80;99.90
1686;DHT22;840;47.980;7.830;2022-12-22T18:05:46;12.80;99.90
1686;DHT22;840;47.980;7.830;2022-12-22T18:08:16;12.90;99.90
1686;DHT22;840;47.980;7.830;2022-12-22T18:10:52;12.90;99.90
1686;DHT22;840;47.980;7.830;2022-12-22T18:13:25;13.00;99.90
1686;DHT22;840;47.980;7.830;2022-12-22T18:15:53;12.90;99.90
1686;DHT22;840;47.980;7.830;2022-12-22T18:18:24;13.00;99.90
1686;DHT22;840;47.980;7.830;2022-12-22T18:20:53;13.00;99.90
1686;DHT22;840;47.980;7.830;2022-12-22T18:23:26;13.10;99.90
1686;DHT22;840;47.980;7.830;2022-12-22T18:25:55;13.10;99.90
1686;DHT22;840;47.980;7.830;2022-12-22T18:28:25;13.10;99.90
1686;DHT22;840;47.980;7.830;2022-12-22T18:30:52;13.20;99.90
1686;DHT22;840;47.980;7.830;2022-12-22T18:33:19;13.10;99.90
1686;DHT22;840;47.980;7.830;2022-12-22T18:35:46;13.20;99.90
1686;DHT22;840;47.980;7.830;2022-12-22T18:38:23;13.10;99.90
1686;DHT22;840;47.980;7.830;2022-12-22T18:40:51;13.30;99.90